Time;durP1;ratioP1;P1;durP2;ratioP2;P2;SDS_P1;SDS_P2;PMS_P1;PMS_P2;Temp;Humidity;BMP_temperature;BMP_pressure;BME280_temperature;BME280_humidity;BME280_pressure;Samples;Min_cycle;Max_cycle;Signal;HPM_P1;HPM_P2
2022/08/07 00:01:32;;;;;;;9.53;8.73;;;19.20;99.90;;;;;;5012896;28;20176;-68
2022/08/07 00:03:58;;;;;;;9.83;8.90;;;19.10;99.90;;;;;;5012732;28;20176;-72
2022/08/07 00:06:25;;;;;;;9.87;8.97;;;19.10;99.90;;;;;;5012734;28;20169;-69
2022/08/07 00:08:50;;;;;;;9.10;8.27;;;19.10;99.90;;;;;;5012126;28;20463;-70
2022/08/07 00:11:16;;;;;;;9.13;8.13;;;19.10;99.90;;;;;;5012568;28;20433;-69
2022/08/07 00:13:44;;;;;;;9.00;8.20;;;18.90;99.90;;;;;;5012118;28;20216;-72
2022/08/07 00:16:10;;;;;;;8.30;7.47;;;18.90;99.90;;;;;;5012538;28;20252;-71
2022/08/07 00:18:36;;;;;;;7.40;6.70;;;18.90;99.90;;;;;;5012087;28;20426;-71
2022/08/07 00:21:04;;;;;;;6.63;5.93;;;18.70;99.90;;;;;;5012374;28;20422;-70
2022/08/07 00:23:32;;;;;;;7.87;5.43;;;18.80;99.90;;;;;;5012366;28;20566;-69
2022/08/07 00:25:59;;;;;;;5.57;5.07;;;18.70;99.90;;;;;;5012323;28;20403;-70
2022/08/07 00:28:25;;;;;;;6.30;5.53;;;18.70;99.90;;;;;;5011929;28;20813;-70
2022/08/07 00:30:51;;;;;;;7.23;4.17;;;18.70;99.90;;;;;;5012374;28;20450;-71
2022/08/07 00:33:17;;;;;;;11.23;4.63;;;18.70;99.90;;;;;;5012183;28;20931;-69
2022/08/07 00:35:42;;;;;;;5.67;4.90;;;18.70;99.90;;;;;;5011973;28;20270;-70
2022/08/07 00:38:08;;;;;;;4.90;4.50;;;18.70;99.90;;;;;;4994081;28;20530;-69
2022/08/07 00:40:34;;;;;;;5.10;4.60;;;18.60;99.90;;;;;;5012178;28;20220;-69
2022/08/07 00:43:00;;;;;;;12.23;5.97;;;18.50;99.90;;;;;;5011998;28;20188;-68
2022/08/07 00:45:27;;;;;;;5.20;4.70;;;18.60;99.90;;;;;;5011826;28;20417;-70
2022/08/07 00:47:53;;;;;;;6.50;5.10;;;18.70;99.90;;;;;;5011623;28;20187;-71
2022/08/07 00:50:19;;;;;;;6.87;5.30;;;18.70;99.90;;;;;;5011690;28;20425;-69
2022/08/07 00:52:45;;;;;;;5.70;5.20;;;18.60;99.90;;;;;;5011834;28;20400;-69
2022/08/07 00:55:10;;;;;;;5.17;4.67;;;18.70;99.90;;;;;;5011938;28;20175;-69
2022/08/07 00:57:36;;;;;;;5.13;4.20;;;18.60;99.90;;;;;;5011420;28;20514;-70
2022/08/07 01:00:05;;;;;;;5.80;5.20;;;18.60;99.90;;;;;;4993830;28;21039;-69
2022/08/07 01:02:31;;;;;;;7.17;5.17;;;18.70;99.90;;;;;;5011693;28;20176;-70
2022/08/07 01:04:58;;;;;;;7.80;5.10;;;18.70;99.90;;;;;;5011450;28;20465;-69
2022/08/07 01:07:25;;;;;;;8.33;4.97;;;18.60;99.90;;;;;;5011365;28;20494;-69
2022/08/07 01:09:51;;;;;;;4.63;4.23;;;18.50;99.90;;;;;;5011209;28;20446;-69
2022/08/07 01:12:17;;;;;;;5.80;3.97;;;18.40;99.90;;;;;;5011665;28;20403;-70
2022/08/07 01:14:43;;;;;;;6.13;3.63;;;18.30;99.90;;;;;;5011541;28;20537;-68
2022/08/07 01:17:10;;;;;;;5.37;3.63;;;18.10;99.90;;;;;;5011338;28;20477;-69
2022/08/07 01:19:37;;;;;;;5.10;3.93;;;18.00;99.90;;;;;;5011413;28;20312;-68
2022/08/07 01:22:03;;;;;;;29.30;6.73;;;18.10;99.90;;;;;;5011568;28;20438;-69
2022/08/07 01:24:30;;;;;;;10.13;3.97;;;18.10;99.90;;;;;;5010385;28;20433;-70
2022/08/07 01:26:57;;;;;;;6.13;4.07;;;18.10;99.90;;;;;;5011261;28;20407;-69
2022/08/07 01:29:25;;;;;;;4.40;4.00;;;18.10;99.90;;;;;;5011050;28;20435;-69
2022/08/07 01:31:51;;;;;;;4.20;3.80;;;18.10;99.90;;;;;;5011334;28;20421;-68
2022/08/07 01:34:18;;;;;;;4.83;4.33;;;17.90;99.90;;;;;;5012130;28;20403;-69
2022/08/07 01:36:45;;;;;;;4.70;4.13;;;18.00;99.90;;;;;;5012425;28;20404;-70
2022/08/07 01:39:11;;;;;;;3.50;3.20;;;17.90;99.90;;;;;;5012001;28;20434;-69
2022/08/07 01:41:38;;;;;;;4.60;4.20;;;18.00;99.90;;;;;;5012503;28;20422;-72
2022/08/07 01:44:04;;;;;;;4.03;3.63;;;17.90;99.90;;;;;;5011936;28;20841;-70
2022/08/07 01:46:30;;;;;;;5.10;4.40;;;17.90;99.90;;;;;;5011233;28;20469;-71
2022/08/07 01:48:56;;;;;;;3.90;3.60;;;17.90;99.90;;;;;;5010853;28;20469;-72
2022/08/07 01:51:24;;;;;;;4.00;3.70;;;17.80;99.90;;;;;;5011436;28;20399;-70
2022/08/07 01:53:53;;;;;;;4.57;4.00;;;17.40;99.90;;;;;;5011109;28;20200;-71
2022/08/07 01:56:25;;;;;;;4.33;3.93;;;17.40;99.90;;;;;;5011112;28;20826;-69
2022/08/07 01:59:05;;;;;;;3.83;3.53;;;17.30;99.90;;;;;;5010934;28;20810;-72
2022/08/07 02:01:36;;;;;;;4.20;3.80;;;17.40;99.90;;;;;;5011072;28;20411;-71
2022/08/07 02:04:10;;;;;;;4.10;3.70;;;17.40;99.90;;;;;;5011213;28;20403;-68
2022/08/07 02:06:38;;;;;;;4.40;4.00;;;17.10;99.90;;;;;;5011400;28;20416;-68
2022/08/07 02:09:06;;;;;;;5.90;4.17;;;17.20;99.90;;;;;;5010392;28;20462;-70
2022/08/07 02:11:36;;;;;;;4.40;4.00;;;17.00;99.90;;;;;;5011010;28;20535;-70
2022/08/07 02:14:03;;;;;;;4.07;3.70;;;17.00;99.90;;;;;;5010951;28;20494;-70
2022/08/07 02:16:30;;;;;;;4.43;4.10;;;17.00;99.90;;;;;;5010903;28;20497;-70
2022/08/07 02:18:56;;;;;;;4.80;4.40;;;17.10;99.90;;;;;;5010540;28;20521;-68
2022/08/07 02:21:23;;;;;;;4.30;3.90;;;17.30;99.90;;;;;;5010992;28;20461;-68
2022/08/07 02:23:50;;;;;;;5.10;4.20;;;17.10;99.90;;;;;;5011168;28;20630;-68
2022/08/07 02:26:16;;;;;;;4.77;4.30;;;17.00;99.90;;;;;;5010869;28;20415;-68
2022/08/07 02:28:43;;;;;;;4.30;3.90;;;17.00;99.90;;;;;;5010552;28;20553;-69
2022/08/07 02:31:11;;;;;;;4.20;3.90;;;17.10;99.90;;;;;;4993070;28;20426;-69
2022/08/07 02:33:39;;;;;;;4.37;3.97;;;16.90;99.90;;;;;;5010875;28;20505;-68
2022/08/07 02:36:07;;;;;;;4.93;4.60;;;16.70;99.90;;;;;;5013517;28;20478;-69
2022/08/07 02:38:36;;;;;;;5.73;4.70;;;16.70;99.90;;;;;;5013957;28;20415;-69
2022/08/07 02:41:03;;;;;;;4.87;4.47;;;16.30;99.90;;;;;;5014301;28;20411;-70
2022/08/07 02:43:29;;;;;;;4.73;4.33;;;16.40;99.90;;;;;;5014304;28;20789;-69
2022/08/07 02:45:57;;;;;;;5.13;4.73;;;16.50;99.90;;;;;;5014024;28;20421;-68
2022/08/07 02:48:24;;;;;;;4.53;4.20;;;16.60;99.90;;;;;;5013567;28;20908;-69
2022/08/07 02:50:53;;;;;;;5.83;5.33;;;16.70;99.90;;;;;;5013967;28;20411;-72
2022/08/07 02:53:25;;;;;;;4.73;4.30;;;16.70;99.90;;;;;;5014134;28;20403;-69
2022/08/07 02:55:54;;;;;;;6.60;5.07;;;16.70;99.90;;;;;;5014141;28;20403;-71
2022/08/07 02:58:22;;;;;;;5.43;4.90;;;16.60;99.90;;;;;;5013537;28;20480;-68
2022/08/07 03:00:50;;;;;;;5.87;5.37;;;16.60;99.90;;;;;;5013929;28;20418;-70
2022/08/07 03:03:17;;;;;;;13.53;5.60;;;16.50;99.90;;;;;;5013771;28;20436;-69
2022/08/07 03:05:44;;;;;;;6.57;5.90;;;16.50;99.90;;;;;;5013854;28;20439;-69
2022/08/07 03:08:11;;;;;;;6.33;5.83;;;16.40;99.90;;;;;;5013363;28;20506;-70
2022/08/07 03:10:38;;;;;;;7.47;6.20;;;16.40;1.00;;;;;;5022346;23;20498;-65
2022/08/07 03:13:05;;;;;;;6.60;6.10;;;16.50;1.00;;;;;;4998011;28;20454;-65
2022/08/07 03:15:32;;;;;;;6.23;5.73;;;16.30;1.00;;;;;;4999602;28;20436;-65
2022/08/07 03:17:59;;;;;;;10.00;8.10;;;16.30;1.00;;;;;;4993615;28;20463;-65
2022/08/07 03:20:25;;;;;;;7.80;7.10;;;16.30;1.00;;;;;;5009181;28;20427;-65
2022/08/07 03:22:53;;;;;;;7.33;6.63;;;16.20;1.00;;;;;;5013641;28;20758;-65
2022/08/07 03:25:20;;;;;;;9.00;7.43;;;16.30;1.00;;;;;;5013356;28;20399;-65
2022/08/07 03:27:47;;;;;;;8.73;7.37;;;16.40;1.00;;;;;;5013168;28;20450;-65
2022/08/07 03:30:13;;;;;;;9.17;8.47;;;16.30;99.90;;;;;;5013012;28;20850;-65
2022/08/07 03:32:42;;;;;;;9.27;8.47;;;16.30;99.90;;;;;;5013314;28;20412;-65
2022/08/07 03:35:24;;;;;;;10.00;9.10;;;16.30;99.90;;;;;;5013184;28;20470;-65
2022/08/07 03:37:56;;;;;;;9.67;8.77;;;16.40;99.90;;;;;;5013016;28;20537;-65
2022/08/07 03:40:23;;;;;;;9.67;8.87;;;16.30;1.00;;;;;;5012951;28;20423;-65
2022/08/07 03:42:51;;;;;;;9.63;8.73;;;16.30;1.00;;;;;;5012978;28;20774;-65
2022/08/07 03:45:18;;;;;;;10.53;9.73;;;16.20;1.00;;;;;;5013092;28;20485;-65
2022/08/07 03:47:44;;;;;;;10.73;9.83;;;16.10;99.90;;;;;;5011707;28;20451;-65
2022/08/07 03:50:11;;;;;;;11.03;9.93;;;16.00;99.90;;;;;;5012741;28;20433;-65
2022/08/07 03:52:37;;;;;;;11.47;10.57;;;16.00;1.00;;;;;;5013073;28;20215;-65
2022/08/07 03:55:04;;;;;;;11.33;10.10;;;16.10;1.00;;;;;;5012713;28;20404;-67
2022/08/07 03:57:32;;;;;;;12.10;11.00;;;15.90;33.90;;;;;;5014570;28;20769;-66
2022/08/07 03:59:58;;;;;;;12.23;11.03;;;15.90;99.90;;;;;;5014225;28;20434;-66
2022/08/07 04:02:24;;;;;;;13.17;11.70;;;15.90;1.00;;;;;;5012597;28;20982;-66
2022/08/07 04:04:51;;;;;;;14.67;13.37;;;15.90;1.00;;;;;;5012735;28;20477;-65
2022/08/07 04:07:18;;;;;;;11.93;10.80;;;16.00;1.00;;;;;;5012518;28;20801;-65
2022/08/07 04:09:45;;;;;;;13.70;12.60;;;16.10;1.00;;;;;;5012031;28;20450;-65
2022/08/07 04:12:12;;;;;;;13.20;11.97;;;16.00;1.00;;;;;;5012610;28;20430;-65
2022/08/07 04:14:38;;;;;;;12.97;11.83;;;16.10;1.00;;;;;;5012608;28;20407;-65
2022/08/07 04:17:04;;;;;;;13.70;12.40;;;16.20;1.00;;;;;;5012324;28;20619;-65
2022/08/07 04:19:30;;;;;;;14.97;13.63;;;16.20;1.00;;;;;;5012190;28;20431;-66
2022/08/07 04:21:56;;;;;;;15.87;14.50;;;16.20;1.00;;;;;;5012425;28;20168;-65
2022/08/07 04:24:22;;;;;;;15.37;13.87;;;16.10;99.90;;;;;;5012337;28;20175;-65
2022/08/07 04:26:48;;;;;;;14.70;12.97;;;16.10;99.90;;;;;;5012422;28;20777;-65
2022/08/07 04:29:14;;;;;;;15.63;14.13;;;16.10;1.00;;;;;;5011874;28;20422;-65
2022/08/07 04:31:40;;;;;;;14.00;12.60;;;16.10;1.00;;;;;;5012359;28;20176;-65
2022/08/07 04:34:07;;;;;;;16.60;15.00;;;16.20;1.00;;;;;;5012104;28;20171;-65
2022/08/07 04:36:34;;;;;;;15.23;13.63;;;16.20;1.00;;;;;;5012151;28;20403;-65
2022/08/07 04:39:04;;;;;;;16.10;14.30;;;16.20;2.40;;;;;;5011602;28;20791;-65
2022/08/07 04:41:30;;;;;;;15.13;13.80;;;16.30;1.00;;;;;;5012307;28;20760;-65
2022/08/07 04:43:56;;;;;;;16.47;14.53;;;16.40;99.90;;;;;;5012064;28;20482;-65
2022/08/07 04:46:41;;;;;;;16.30;14.90;;;16.40;99.90;;;;;;5011878;28;20228;-64
2022/08/07 04:49:40;;;;;;;15.40;14.00;;;16.50;99.90;;;;;;5011436;28;20455;-64
2022/08/07 04:52:31;;;;;;;15.53;14.13;;;16.60;1.00;;;;;;5011895;28;20825;-65
2022/08/07 04:55:05;;;;;;;16.13;14.67;;;16.60;78.50;;;;;;5011876;28;20504;-66
2022/08/07 04:57:46;;;;;;;15.03;13.60;;;16.80;1.00;;;;;;5011652;28;20418;-65
2022/08/07 05:00:31;;;;;;;15.37;13.83;;;17.00;1.00;;;;;;5013292;28;20498;-66
2022/08/07 05:02:59;;;;;;;15.03;13.63;;;17.20;1.00;;;;;;4993891;28;20407;-66
2022/08/07 05:05:44;;;;;;;13.40;12.20;;;17.00;99.90;;;;;;5011516;28;20467;-65
2022/08/07 05:08:28;;;;;;;14.93;13.63;;;17.10;99.90;;;;;;5011055;28;20467;-66
2022/08/07 05:11:08;;;;;;;15.17;13.17;;;17.30;1.00;;;;;;5011304;28;20450;-66
2022/08/07 05:13:51;;;;;;;14.57;13.07;;;17.50;1.00;;;;;;5011146;28;20399;-65
2022/08/07 05:16:19;;;;;;;13.20;11.90;;;17.40;1.00;;;;;;5011114;28;20407;-66
2022/08/07 05:18:54;;;;;;;12.70;11.53;;;17.60;1.00;;;;;;5011019;28;20519;-65
2022/08/07 05:21:25;;;;;;;11.97;10.93;;;17.70;1.00;;;;;;5011476;28;20438;-65
2022/08/07 05:23:57;;;;;;;12.17;11.17;;;17.70;99.90;;;;;;5011294;28;20442;-66
2022/08/07 05:26:26;;;;;;;13.07;11.83;;;17.70;1.00;;;;;;5011398;28;20546;-66
2022/08/07 05:28:53;;;;;;;14.40;11.23;;;17.80;99.90;;;;;;5010838;28;20477;-66
2022/08/07 05:31:21;;;;;;;11.60;10.50;;;17.80;99.90;;;;;;5011290;28;20461;-66
2022/08/07 05:33:49;;;;;;;10.87;9.97;;;18.10;1.00;;;;;;5011386;28;20437;-65
2022/08/07 05:36:15;;;;;;;11.37;10.27;;;18.70;99.90;;;;;;5011100;28;20511;-63
2022/08/07 05:38:42;;;;;;;11.20;10.10;;;18.70;99.90;;;;;;5010875;28;20426;-64
2022/08/07 05:41:09;;;;;;;10.20;9.40;;;18.80;1.00;;;;;;5011285;28;20418;-66
2022/08/07 05:43:35;;;;;;;11.20;10.20;;;17.90;1.00;;;;;;5011171;28;20450;-66
2022/08/07 05:46:01;;;;;;;10.80;9.70;;;17.70;4.30;;;;;;5011266;28;20444;-66
2022/08/07 05:48:28;;;;;;;9.97;9.20;;;17.70;99.90;;;;;;5010774;28;20486;-66
2022/08/07 05:50:56;;;;;;;10.40;9.40;;;18.40;99.90;;;;;;5011242;28;20486;-64
2022/08/07 05:53:21;;;;;;;10.30;9.50;;;18.40;99.90;;;;;;5011056;28;20451;-65
2022/08/07 05:55:49;;;;;;;9.73;8.90;;;18.20;99.90;;;;;;5011146;28;20442;-63
2022/08/07 05:58:15;;;;;;;10.37;8.77;;;18.30;99.90;;;;;;5010826;28;20275;-63
2022/08/07 06:00:45;;;;;;;10.27;9.30;;;18.90;1.00;;;;;;5011001;28;20924;-66
2022/08/07 06:03:13;;;;;;;9.40;8.67;;;18.60;1.00;;;;;;5011193;28;20839;-66
2022/08/07 06:05:40;;;;;;;8.40;7.57;;;18.70;1.00;;;;;;5011170;28;20404;-64
2022/08/07 06:08:07;;;;;;;8.83;8.23;;;18.50;1.00;;;;;;5010761;28;20451;-66
2022/08/07 06:10:34;;;;;;;8.30;7.50;;;18.50;1.00;;;;;;5011950;28;20454;-64
2022/08/07 06:13:00;;;;;;;8.97;8.27;;;18.40;1.00;;;;;;5014887;28;20494;-64
2022/08/07 06:15:27;;;;;;;7.87;7.13;;;18.20;1.00;;;;;;5014675;28;20494;-64
2022/08/07 06:17:54;;;;;;;8.97;8.17;;;18.20;1.00;;;;;;5014430;28;20176;-65
2022/08/07 06:20:21;;;;;;;7.47;6.60;;;18.30;1.00;;;;;;5014577;28;20427;-64
2022/08/07 06:22:49;;;;;;;8.17;7.40;;;18.50;1.00;;;;;;5014520;28;20417;-65
2022/08/07 06:25:15;;;;;;;7.07;6.43;;;18.90;1.00;;;;;;5014538;28;20419;-65
2022/08/07 06:27:41;;;;;;;10.10;7.00;;;19.20;1.00;;;;;;4996747;28;20465;-65
2022/08/07 06:30:07;;;;;;;6.43;5.70;;;19.20;1.00;;;;;;5014228;28;20184;-64
2022/08/07 06:32:33;;;;;;;7.10;6.40;;;19.60;1.00;;;;;;5014337;28;20414;-64
2022/08/07 06:34:59;;;;;;;6.57;5.93;;;19.50;99.90;;;;;;5014391;28;20497;-64
2022/08/07 06:37:25;;;;;;;12.83;5.67;;;19.70;99.90;;;;;;5014093;28;20251;-64
2022/08/07 06:39:52;;;;;;;4.77;4.37;;;19.20;99.90;;;;;;5014679;28;20492;-64
2022/08/07 06:42:28;;;;;;;5.80;5.30;;;18.80;99.90;;;;;;5015701;28;20180;-64
2022/08/07 06:44:56;;;;;;;8.93;5.70;;;18.90;99.90;;;;;;5014840;28;20407;-64
2022/08/07 06:47:22;;;;;;;9.67;6.07;;;19.40;99.90;;;;;;5018982;28;20509;-66
2022/08/07 06:49:48;;;;;;;5.13;4.73;;;19.90;99.90;;;;;;5019597;28;20450;-66
2022/08/07 06:52:15;;;;;;;5.00;4.53;;;19.80;99.90;;;;;;5017222;28;20404;-64
2022/08/07 06:54:43;;;;;;;5.50;5.10;;;19.70;99.90;;;;;;5014392;28;20633;-64
2022/08/07 06:57:10;;;;;;;5.83;5.20;;;19.80;99.90;;;;;;5013896;28;20445;-66
2022/08/07 06:59:40;;;;;;;5.10;4.60;;;19.50;99.90;;;;;;5013592;28;20510;-64
2022/08/07 07:02:08;;;;;;;5.17;4.67;;;19.50;99.90;;;;;;5014175;28;20411;-66
2022/08/07 07:04:34;;;;;;;4.90;4.40;;;19.40;99.90;;;;;;5013805;28;20411;-67
2022/08/07 07:07:06;;;;;;;6.00;4.10;;;19.30;99.90;;;;;;5013629;28;20854;-64
2022/08/07 07:09:32;;;;;;;3.90;3.60;;;19.40;99.90;;;;;;5013392;28;20486;-64
2022/08/07 07:12:26;;;;;;;5.10;4.60;;;19.20;99.90;;;;;;5013898;28;20395;-65
2022/08/07 07:15:13;;;;;;;6.00;4.23;;;19.10;99.90;;;;;;5013608;28;20904;-65
2022/08/07 07:18:03;;;;;;;4.10;3.70;;;19.80;99.90;;;;;;5013715;28;20545;-66
2022/08/07 07:20:54;;;;;;;6.37;3.57;;;20.30;99.90;;;;;;5013544;28;20434;-64
2022/08/07 07:23:20;;;;;;;4.60;3.40;;;20.50;99.90;;;;;;5002520;28;20790;-65
2022/08/07 07:25:49;;;;;;;2.87;2.67;;;20.30;99.90;;;;;;5013488;28;20490;-65
2022/08/07 07:28:19;;;;;;;3.50;3.00;;;19.70;99.90;;;;;;5013092;28;20454;-65
2022/08/07 07:30:52;;;;;;;4.50;2.80;;;19.80;99.90;;;;;;5013408;28;20427;-66
2022/08/07 07:33:20;;;;;;;3.63;3.33;;;20.00;99.90;;;;;;5013463;28;20407;-66
2022/08/07 07:35:49;;;;;;;3.50;3.20;;;20.00;99.90;;;;;;5013360;28;20438;-66
2022/08/07 07:38:19;;;;;;;3.67;2.80;;;20.20;99.90;;;;;;5012909;28;20407;-66
2022/08/07 07:40:47;;;;;;;3.20;2.90;;;20.20;99.90;;;;;;5013382;28;21152;-66
2022/08/07 07:43:14;;;;;;;3.67;2.70;;;20.20;99.90;;;;;;5013152;28;20415;-66
2022/08/07 07:45:42;;;;;;;2.87;2.63;;;20.50;99.90;;;;;;5012830;28;20403;-66
2022/08/07 07:48:11;;;;;;;3.00;2.67;;;20.20;99.90;;;;;;5012644;28;20470;-66
2022/08/07 07:50:38;;;;;;;2.83;2.63;;;20.00;99.90;;;;;;5012742;28;20416;-65
2022/08/07 07:53:07;;;;;;;4.27;2.63;;;20.00;99.90;;;;;;5013142;28;20900;-65
2022/08/07 07:55:33;;;;;;;3.30;2.73;;;20.30;99.90;;;;;;5013089;28;20908;-65
2022/08/07 07:58:01;;;;;;;2.67;2.47;;;20.60;99.90;;;;;;5012839;28;20968;-65
2022/08/07 08:00:28;;;;;;;4.10;2.70;;;20.40;99.90;;;;;;5012793;28;20442;-65
2022/08/07 08:02:57;;;;;;;4.03;3.20;;;20.40;99.90;;;;;;5012977;28;20778;-65
2022/08/07 08:05:23;;;;;;;2.60;2.40;;;20.30;99.90;;;;;;5012856;28;20422;-65
2022/08/07 08:07:50;;;;;;;2.77;2.57;;;20.30;99.90;;;;;;5012527;28;20451;-65
2022/08/07 08:10:18;;;;;;;2.73;2.40;;;20.40;99.90;;;;;;5012699;28;20262;-65
2022/08/07 08:12:45;;;;;;;3.97;2.57;;;20.30;99.90;;;;;;4995282;28;20412;-65
2022/08/07 08:15:11;;;;;;;3.90;2.57;;;20.10;99.90;;;;;;5012897;28;20450;-65
2022/08/07 08:17:39;;;;;;;3.27;2.33;;;20.40;99.90;;;;;;5012488;28;20447;-65
2022/08/07 08:20:07;;;;;;;3.23;2.90;;;20.70;99.90;;;;;;5012356;28;20191;-65
2022/08/07 08:28:24;;;;;;;4.03;2.30;;;21.40;99.90;;;;;;5012055;28;20916;-65
2022/08/07 08:30:56;;;;;;;2.60;2.40;;;21.10;99.90;;;;;;5012404;28;20459;-65
2022/08/07 08:33:26;;;;;;;2.63;2.17;;;20.80;99.90;;;;;;5012072;28;20453;-65
2022/08/07 08:35:54;;;;;;;5.50;2.63;;;21.00;99.90;;;;;;4995213;28;20399;-65
2022/08/07 08:38:24;;;;;;;2.60;2.40;;;21.60;99.90;;;;;;5011940;28;20414;-65
2022/08/07 08:41:10;;;;;;;3.77;2.47;;;21.70;99.90;;;;;;5012290;28;20481;-65
2022/08/07 08:43:44;;;;;;;2.57;2.37;;;22.00;99.90;;;;;;5012103;28;20832;-65
2022/08/07 08:46:49;;;;;;;5.97;3.33;;;21.90;99.90;;;;;;5012175;28;20407;-65
2022/08/07 08:49:23;;;;;;;3.20;2.37;;;21.70;99.90;;;;;;5011685;28;21069;-66
2022/08/07 08:52:24;;;;;;;2.23;1.90;;;21.90;99.90;;;;;;5012069;28;20504;-65
2022/08/07 08:55:12;;;;;;;4.70;2.30;;;22.50;99.90;;;;;;5012127;28;20459;-65
2022/08/07 08:58:20;;;;;;;4.73;2.20;;;22.50;99.90;;;;;;5011623;28;20407;-65
2022/08/07 09:00:53;;;;;;;2.60;2.13;;;21.80;99.90;;;;;;4983876;28;20868;-65
2022/08/07 09:03:38;;;;;;;2.63;2.00;;;21.80;99.90;;;;;;5011825;28;20446;-66
2022/08/07 09:06:25;;;;;;;3.20;2.03;;;22.30;99.90;;;;;;5011750;28;20786;-66
2022/08/07 09:11:40;;;;;;;2.77;2.47;;;22.20;99.90;;;;;;4951622;29;20474;-67
2022/08/07 09:14:27;;;;;;;2.27;2.07;;;22.40;99.90;;;;;;4953235;29;20394;-66
2022/08/07 09:17:28;;;;;;;3.60;2.00;;;22.40;99.90;;;;;;4935782;29;20413;-64
2022/08/07 09:20:08;;;;;;;2.77;2.20;;;22.30;99.90;;;;;;4952961;28;20508;-67
2022/08/07 09:22:53;;;;;;;3.03;2.23;;;22.30;99.90;;;;;;4950898;29;20427;-66
2022/08/07 09:25:25;;;;;;;2.73;2.00;;;22.50;99.90;;;;;;4953036;29;20410;-67
2022/08/07 09:28:10;;;;;;;4.50;1.90;;;22.80;99.90;;;;;;4952893;29;20902;-67
2022/08/07 09:31:02;;;;;;;2.70;2.50;;;22.70;99.90;;;;;;4952768;28;20426;-67
2022/08/07 09:34:07;;;;;;;3.50;2.47;;;22.90;99.90;;;;;;4906884;29;20509;-67
2022/08/07 09:36:51;;;;;;;2.37;2.17;;;22.20;99.90;;;;;;4952763;29;20421;-65
2022/08/07 09:39:49;;;;;;;9.10;3.23;;;22.10;99.90;;;;;;4952589;28;20489;-68
2022/08/07 09:42:23;;;;;;;2.83;2.50;;;22.50;99.90;;;;;;4920364;29;20426;-67
2022/08/07 09:45:20;;;;;;;6.60;3.70;;;22.50;99.90;;;;;;4953388;28;20417;-67
2022/08/07 09:48:01;;;;;;;2.70;2.47;;;22.30;99.90;;;;;;4956512;29;20457;-67
2022/08/07 09:50:42;;;;;;;4.00;2.30;;;22.90;99.90;;;;;;4951337;28;20489;-65
2022/08/07 09:53:08;;;;;;;3.60;2.17;;;23.30;99.90;;;;;;4956513;29;20402;-67
2022/08/07 09:56:15;;;;;;;8.70;3.03;;;23.00;99.90;;;;;;4956588;28;20413;-67
2022/08/07 09:59:02;;;;;;;3.03;2.73;;;23.20;99.90;;;;;;4956609;29;20766;-65
2022/08/07 10:01:33;;;;;;;2.73;2.53;;;22.80;99.90;;;;;;4948854;29;20409;-65
2022/08/07 10:04:08;;;;;;;4.07;2.70;;;23.00;99.90;;;;;;4956703;28;20418;-68
2022/08/07 10:06:49;;;;;;;2.60;2.30;;;22.90;99.90;;;;;;4957333;29;20446;-66
2022/08/07 10:09:41;;;;;;;4.90;2.57;;;22.70;99.90;;;;;;4955982;29;20449;-67
2022/08/07 10:12:37;;;;;;;6.20;2.57;;;22.90;99.90;;;;;;4926807;29;20410;-66
2022/08/07 10:15:09;;;;;;;4.43;3.43;;;22.70;99.90;;;;;;4954938;29;20408;-63
2022/08/07 10:17:55;;;;;;;3.00;2.20;;;22.50;99.90;;;;;;4953872;29;20402;-66
2022/08/07 10:20:46;;;;;;;4.83;2.80;;;22.70;99.90;;;;;;4953160;29;20506;-66
2022/08/07 10:23:33;;;;;;;3.27;2.90;;;22.80;99.90;;;;;;4953190;29;20448;-66
2022/08/07 10:26:23;;;;;;;4.23;2.40;;;22.90;99.80;;;;;;4953739;29;20409;-67
2022/08/07 10:29:29;;;;;;;3.90;2.30;;;22.90;99.10;;;;;;4953307;28;20453;-66
2022/08/07 10:32:22;;;;;;;2.70;2.50;;;23.20;98.60;;;;;;4953629;29;20410;-66
2022/08/07 10:35:06;;;;;;;2.40;2.20;;;23.30;97.40;;;;;;4953488;29;20487;-65
2022/08/07 10:38:12;;;;;;;4.00;2.67;;;23.70;97.30;;;;;;4953460;29;20405;-67
2022/08/07 10:40:52;;;;;;;3.57;2.60;;;23.10;96.10;;;;;;4953193;29;20471;-65
2022/08/07 10:43:33;;;;;;;3.17;2.43;;;22.90;94.70;;;;;;4952822;29;20850;-67
2022/08/07 10:46:28;;;;;;;2.40;2.17;;;22.90;92.60;;;;;;4953383;29;20413;-67
2022/08/07 10:49:36;;;;;;;10.13;2.97;;;23.10;92.50;;;;;;4950956;29;20472;-67
2022/08/07 10:52:11;;;;;;;4.10;2.20;;;23.40;93.60;;;;;;4875399;29;20458;-67
2022/08/07 10:55:08;;;;;;;2.83;2.63;;;23.10;91.80;;;;;;4942076;29;20460;-66
2022/08/07 10:57:59;;;;;;;2.53;2.10;;;23.50;92.30;;;;;;4937297;29;20834;-67
2022/08/07 11:00:32;;;;;;;3.83;2.37;;;23.70;91.80;;;;;;4952722;29;20521;-66
2022/08/07 11:03:09;;;;;;;3.40;2.53;;;23.60;89.70;;;;;;4953570;29;20420;-67
2022/08/07 11:05:53;;;;;;;3.00;2.60;;;23.20;97.60;;;;;;4953043;29;20406;-67
2022/08/07 11:08:38;;;;;;;3.17;2.87;;;23.40;90.10;;;;;;4952639;29;20453;-67
2022/08/07 11:11:31;;;;;;;2.60;2.40;;;23.30;88.80;;;;;;4952618;28;20539;-66
2022/08/07 11:14:04;;;;;;;3.50;2.33;;;23.50;89.20;;;;;;4953220;29;20402;-67
2022/08/07 11:16:50;;;;;;;3.60;2.40;;;23.60;89.20;;;;;;4952787;29;20499;-66
2022/08/07 11:19:23;;;;;;;3.10;2.67;;;23.50;88.90;;;;;;4952501;28;20937;-65
2022/08/07 11:21:56;;;;;;;5.63;2.80;;;23.40;87.40;;;;;;4952199;29;20406;-67
2022/08/07 11:24:48;;;;;;;6.80;3.10;;;23.90;88.80;;;;;;4952485;29;20497;-67
2022/08/07 11:27:31;;;;;;;2.63;2.43;;;24.00;88.80;;;;;;4951843;29;20402;-65
2022/08/07 11:30:04;;;;;;;4.20;2.60;;;24.10;87.00;;;;;;4952171;28;20429;-66
2022/08/07 11:32:35;;;;;;;2.70;2.50;;;24.00;85.70;;;;;;4952643;29;20777;-63
2022/08/07 11:35:10;;;;;;;6.20;3.10;;;23.70;83.60;;;;;;4952742;29;20891;-66
2022/08/07 11:37:55;;;;;;;3.50;3.27;;;23.60;85.40;;;;;;4952638;29;20765;-66
2022/08/07 11:40:55;;;;;;;5.50;2.50;;;24.10;87.40;;;;;;4952094;28;20497;-67
2022/08/07 11:43:30;;;;;;;2.77;2.57;;;24.40;88.40;;;;;;4952283;29;20413;-67
2022/08/07 11:46:18;;;;;;;3.87;3.10;;;23.80;85.70;;;;;;4952817;29;20456;-65
2022/08/07 11:49:10;;;;;;;2.90;2.33;;;23.80;83.80;;;;;;4952139;29;20466;-67
2022/08/07 11:52:21;;;;;;;2.60;2.40;;;23.80;82.70;;;;;;4924987;29;20422;-64
2022/08/07 11:55:24;;;;;;;2.40;2.20;;;24.10;84.70;;;;;;4952081;28;20426;-65
2022/08/07 11:57:59;;;;;;;25.87;6.30;;;23.80;79.90;;;;;;4951973;29;20417;-66
2022/08/07 12:00:37;;;;;;;4.03;2.63;;;23.90;80.40;;;;;;4951343;28;20441;-66
2022/08/07 12:03:40;;;;;;;4.33;2.70;;;24.50;94.20;;;;;;4951952;29;20496;-63
2022/08/07 12:06:46;;;;;;;2.80;2.50;;;24.40;77.70;;;;;;4951905;29;20401;-65
2022/08/07 12:09:27;;;;;;;3.40;2.40;;;23.70;74.50;;;;;;4947167;28;20548;-65
2022/08/07 12:12:07;;;;;;;3.10;2.80;;;23.90;92.80;;;;;;4954192;29;20414;-66
2022/08/07 12:14:43;;;;;;;2.83;2.53;;;23.70;74.50;;;;;;4954406;29;20408;-67
2022/08/07 12:17:15;;;;;;;2.47;2.27;;;23.60;74.70;;;;;;4953898;29;20558;-66
2022/08/07 12:20:19;;;;;;;3.93;2.57;;;23.90;75.30;;;;;;4954008;28;20425;-68
2022/08/07 12:23:02;;;;;;;2.93;2.60;;;24.30;91.80;;;;;;4945470;29;20422;-66
2022/08/07 12:25:52;;;;;;;2.77;2.10;;;24.00;73.00;;;;;;4954004;29;20415;-68
2022/08/07 12:28:42;;;;;;;2.60;2.40;;;24.30;74.50;;;;;;4954181;29;20456;-67
2022/08/07 12:31:17;;;;;;;3.40;2.67;;;24.30;73.00;;;;;;4926751;29;20449;-67
2022/08/07 12:33:44;;;;;;;3.43;2.30;;;24.20;73.60;;;;;;4953918;29;20412;-67
2022/08/07 12:36:12;;;;;;;2.90;2.70;;;24.40;74.00;;;;;;4953836;29;20472;-67
2022/08/07 12:38:40;;;;;;;2.47;2.20;;;24.20;70.60;;;;;;4953438;29;20410;-68
2022/08/07 12:41:08;;;;;;;3.40;2.83;;;24.00;68.60;;;;;;4953037;28;20433;-65
2022/08/07 12:43:35;;;;;;;4.73;2.90;;;24.00;69.90;;;;;;4953538;29;20887;-67
2022/08/07 12:46:14;;;;;;;2.90;2.50;;;24.40;70.40;;;;;;4953457;29;20406;-67
2022/08/07 12:49:05;;;;;;;4.60;2.70;;;24.70;70.20;;;;;;4953032;29;20988;-67
2022/08/07 12:51:45;;;;;;;3.50;2.67;;;24.60;68.00;;;;;;4953454;29;20403;-66
2022/08/07 12:54:11;;;;;;;4.77;2.53;;;24.50;68.20;;;;;;4953188;29;20405;-67
2022/08/07 12:56:45;;;;;;;2.60;2.40;;;24.60;66.60;;;;;;4953296;29;20460;-65
2022/08/07 12:59:16;;;;;;;2.93;2.60;;;24.70;65.80;;;;;;4952981;28;20186;-67
2022/08/07 13:02:06;;;;;;;2.80;2.60;;;24.90;65.70;;;;;;4953290;29;21171;-68
2022/08/07 13:04:58;;;;;;;5.90;2.50;;;24.90;63.80;;;;;;4953396;28;20449;-67
2022/08/07 13:07:36;;;;;;;6.93;2.70;;;25.10;62.20;;;;;;4953097;29;20425;-66
2022/08/07 13:10:31;;;;;;;2.80;2.10;;;25.10;61.60;;;;;;4952813;28;20535;-66
2022/08/07 13:13:20;;;;;;;2.50;2.30;;;24.80;58.50;;;;;;4953176;29;20449;-67
2022/08/07 13:16:11;;;;;;;7.03;3.17;;;24.10;57.10;;;;;;4953078;29;20497;-67
2022/08/07 13:18:51;;;;;;;4.30;2.33;;;24.10;57.00;;;;;;4952566;29;20409;-67
2022/08/07 13:21:32;;;;;;;2.80;2.50;;;24.20;56.90;;;;;;4953105;29;20612;-65
2022/08/07 13:24:15;;;;;;;2.63;2.33;;;24.50;58.60;;;;;;4952932;29;20856;-66
2022/08/07 13:26:49;;;;;;;2.63;2.43;;;24.60;57.50;;;;;;4953297;29;20441;-66
2022/08/07 13:29:24;;;;;;;4.10;2.47;;;24.40;56.20;;;;;;4952642;28;20484;-67